Time;durP1;ratioP1;P1;durP2;ratioP2;P2;SDS_P1;SDS_P2;PMS_P1;PMS_P2;Temp;Humidity;BMP_temperature;BMP_pressure;BME280_temperature;BME280_humidity;BME280_pressure;Samples;Min_cycle;Max_cycle;Signal;HPM_P1;HPM_P2
2022/08/13 00:00:21;;;;;;;7.38;3.80;;;21.90;96.90;;;;;;5039458;28;20041;-59
2022/08/13 00:02:47;;;;;;;5.28;3.35;;;21.80;97.20;;;;;;5032559;28;20037;-59
2022/08/13 00:05:13;;;;;;;6.57;3.70;;;21.80;97.40;;;;;;5038347;28;20036;-59
2022/08/13 00:07:39;;;;;;;9.85;4.25;;;21.70;97.80;;;;;;5041173;28;20033;-59
2022/08/13 00:10:09;;;;;;;5.90;3.80;;;21.80;97.70;;;;;;5014849;28;20049;-59
2022/08/13 00:15:32;;;;;;;5.97;4.00;;;21.70;98.00;;;;;;5032793;28;20046;-59
2022/08/13 00:18:07;;;;;;;8.73;3.97;;;21.60;98.10;;;;;;5045236;28;20211;-59
2022/08/13 00:20:51;;;;;;;6.47;4.03;;;21.60;98.20;;;;;;5023436;28;20132;-59
2022/08/13 00:23:19;;;;;;;5.78;4.32;;;21.50;98.30;;;;;;5027141;28;20483;-58
2022/08/13 00:25:48;;;;;;;6.28;3.38;;;21.50;98.50;;;;;;5052656;28;20051;-59
2022/08/13 00:28:19;;;;;;;7.68;4.10;;;21.40;98.50;;;;;;5052421;28;20112;-58
2022/08/13 00:30:46;;;;;;;5.63;3.80;;;21.50;98.60;;;;;;5031982;28;20536;-59
2022/08/13 00:33:18;;;;;;;7.18;3.88;;;21.30;98.70;;;;;;5040433;28;20048;-59
2022/08/13 00:35:47;;;;;;;10.00;4.55;;;21.30;98.90;;;;;;5051941;28;20458;-59
2022/08/13 00:38:32;;;;;;;6.18;4.30;;;21.20;99.00;;;;;;5044346;28;20041;-59
2022/08/13 00:40:59;;;;;;;6.68;3.92;;;21.20;99.10;;;;;;5033460;28;20033;-59
2022/08/13 00:43:26;;;;;;;6.53;4.28;;;21.20;99.20;;;;;;5052209;28;20103;-59
2022/08/13 00:45:54;;;;;;;7.38;4.30;;;21.20;99.20;;;;;;5037933;28;20715;-58
2022/08/13 00:51:08;;;;;;;9.43;4.30;;;21.10;99.40;;;;;;5030590;28;20524;-58
2022/08/13 00:53:36;;;;;;;7.68;4.00;;;21.10;99.40;;;;;;5031959;28;20051;-59
2022/08/13 00:56:03;;;;;;;7.05;3.88;;;21.10;99.40;;;;;;5046180;28;20044;-59
2022/08/13 00:58:29;;;;;;;7.95;3.85;;;21.10;99.50;;;;;;5045640;28;20125;-59
2022/08/13 01:00:57;;;;;;;5.03;3.78;;;21.00;99.60;;;;;;5030825;28;20129;-59
2022/08/13 01:03:25;;;;;;;5.75;3.60;;;21.00;99.60;;;;;;5036135;28;20072;-59
2022/08/13 01:05:52;;;;;;;7.22;3.97;;;21.00;99.80;;;;;;5023620;28;20120;-58
2022/08/13 01:08:19;;;;;;;5.28;3.40;;;21.00;99.60;;;;;;5014408;28;20041;-58
2022/08/13 01:10:49;;;;;;;5.50;3.92;;;21.00;99.60;;;;;;5030466;28;20048;-59
2022/08/13 01:13:18;;;;;;;5.75;3.80;;;21.00;99.60;;;;;;5027310;28;20038;-59
2022/08/13 01:15:44;;;;;;;9.52;4.00;;;21.00;99.60;;;;;;5030906;28;20477;-60
2022/08/13 01:18:13;;;;;;;6.88;3.80;;;20.90;99.50;;;;;;5045470;28;20524;-59
2022/08/13 01:20:58;;;;;;;7.88;3.65;;;20.90;99.60;;;;;;5049643;28;20060;-59
2022/08/13 01:23:24;;;;;;;5.95;3.50;;;20.80;99.90;;;;;;5027063;28;20041;-59
2022/08/13 01:25:52;;;;;;;7.72;3.72;;;20.70;99.90;;;;;;5045303;28;20065;-58
2022/08/13 01:28:19;;;;;;;6.68;3.45;;;20.70;99.90;;;;;;5041075;28;20056;-59
2022/08/13 01:30:46;;;;;;;6.75;3.70;;;20.70;99.90;;;;;;5048512;28;20443;-60
2022/08/13 01:33:16;;;;;;;5.22;3.53;;;20.70;99.90;;;;;;5019449;28;20037;-58
2022/08/13 01:35:42;;;;;;;9.30;3.72;;;20.60;99.90;;;;;;5031509;28;20042;-59
2022/08/13 01:38:08;;;;;;;5.15;3.22;;;20.60;99.90;;;;;;5031362;28;20041;-59
2022/08/13 01:40:34;;;;;;;9.23;3.50;;;20.50;99.90;;;;;;5031214;28;20044;-59
2022/08/13 01:43:00;;;;;;;4.47;3.22;;;20.50;99.90;;;;;;5027394;28;20149;-60
2022/08/13 01:45:29;;;;;;;5.63;3.42;;;20.50;99.90;;;;;;5031438;28;20059;-59
2022/08/13 01:50:39;;;;;;;5.60;3.50;;;20.40;99.90;;;;;;5030561;28;20045;-58
2022/08/13 01:53:13;;;;;;;6.95;3.40;;;20.40;99.90;;;;;;5044882;28;20088;-60
2022/08/13 01:55:45;;;;;;;4.70;3.70;;;20.40;99.90;;;;;;5024946;28;20092;-59
2022/08/13 01:58:13;;;;;;;7.68;3.72;;;20.30;99.90;;;;;;5033467;28;20037;-59
2022/08/13 02:00:43;;;;;;;6.40;3.35;;;20.30;99.90;;;;;;5040228;28;20044;-59
2022/08/13 02:03:11;;;;;;;11.05;3.30;;;20.30;99.90;;;;;;5041902;28;20065;-59
2022/08/13 02:05:38;;;;;;;4.45;3.28;;;20.20;99.90;;;;;;5022502;28;20103;-59
2022/08/13 02:08:12;;;;;;;5.38;3.38;;;20.20;99.90;;;;;;5036079;28;20038;-59
2022/08/13 02:10:39;;;;;;;;;;;20.20;99.90;;;;;;5013493;28;20410;-59
2022/08/13 02:13:10;;;;;;;6.93;3.35;;;20.10;99.90;;;;;;5026353;28;19921;-59
2022/08/13 02:15:36;;;;;;;7.22;3.33;;;20.10;99.90;;;;;;5038540;28;20041;-60
2022/08/13 02:18:04;;;;;;;6.65;3.35;;;20.10;99.90;;;;;;5050777;28;20131;-59
2022/08/13 02:20:35;;;;;;;7.32;3.53;;;20.10;99.90;;;;;;5036283;28;20106;-60
2022/08/13 02:23:02;;;;;;;9.35;3.03;;;20.10;99.90;;;;;;5042439;28;20060;-59
2022/08/13 02:25:29;;;;;;;6.03;3.20;;;20.10;99.90;;;;;;5046271;28;20144;-62
2022/08/13 02:27:56;;;;;;;5.55;3.33;;;20.10;99.90;;;;;;5022034;28;20068;-59
2022/08/13 02:30:26;;;;;;;5.35;3.35;;;20.00;99.90;;;;;;5029184;28;20372;-59
2022/08/13 02:32:52;;;;;;;5.43;3.20;;;20.00;99.90;;;;;;5033139;28;20075;-59
2022/08/13 02:35:19;;;;;;;6.40;3.50;;;20.00;99.90;;;;;;5028751;28;20048;-59
2022/08/13 02:37:47;;;;;;;6.15;3.33;;;19.90;99.90;;;;;;5051057;28;20041;-59
2022/08/13 02:42:59;;;;;;;5.32;3.20;;;19.90;99.90;;;;;;5029518;28;20065;-60
2022/08/13 02:45:26;;;;;;;5.68;3.72;;;19.90;99.90;;;;;;5024967;28;20120;-60
2022/08/13 02:47:53;;;;;;;5.15;3.58;;;19.80;99.90;;;;;;5030630;28;20111;-59
2022/08/13 02:50:21;;;;;;;5.70;3.50;;;19.80;99.90;;;;;;5043109;28;20033;-59
2022/08/13 02:52:51;;;;;;;8.18;3.58;;;19.80;99.90;;;;;;5049649;28;20071;-59
2022/08/13 02:55:22;;;;;;;7.10;3.63;;;19.70;99.90;;;;;;5034386;28;20095;-59
2022/08/13 02:57:50;;;;;;;8.05;3.33;;;19.70;99.90;;;;;;5034072;28;20046;-59
2022/08/13 03:00:19;;;;;;;8.43;3.05;;;19.70;99.90;;;;;;5033698;28;20041;-60
2022/08/13 03:02:45;;;;;;;9.75;3.55;;;19.70;99.90;;;;;;5046778;28;20124;-59
2022/08/13 03:05:16;;;;;;;7.22;3.30;;;19.70;99.90;;;;;;5048822;28;20041;-59
2022/08/13 03:07:43;;;;;;;7.28;3.30;;;19.60;99.90;;;;;;5034057;28;20052;-59
2022/08/13 03:10:11;;;;;;;5.15;3.13;;;19.60;99.90;;;;;;5037849;28;20028;-59
2022/08/13 03:12:44;;;;;;;5.57;3.20;;;19.70;99.90;;;;;;5047458;28;20096;-59
2022/08/13 03:15:13;;;;;;;7.88;3.10;;;19.70;99.90;;;;;;5053814;28;20043;-59
2022/08/13 03:17:40;;;;;;;6.10;3.00;;;19.60;99.90;;;;;;5053498;28;20067;-59
2022/08/13 03:20:09;;;;;;;6.45;3.20;;;19.70;99.90;;;;;;5039524;28;20176;-60
2022/08/13 03:22:48;;;;;;;7.57;3.33;;;19.70;99.90;;;;;;5045652;28;20126;-59
2022/08/13 03:25:14;;;;;;;5.75;3.20;;;19.60;99.90;;;;;;5049595;28;20056;-58
2022/08/13 03:27:40;;;;;;;5.20;3.20;;;19.60;99.90;;;;;;5053216;28;20351;-59
2022/08/13 03:30:07;;;;;;;4.68;3.33;;;19.60;99.90;;;;;;5043087;28;20038;-58
2022/08/13 03:32:40;;;;;;;5.78;3.40;;;19.50;99.90;;;;;;5033099;28;20117;-59
2022/08/13 03:35:12;;;;;;;5.20;3.45;;;19.50;99.90;;;;;;5033755;28;20045;-60
2022/08/13 03:37:39;;;;;;;5.03;3.30;;;19.40;99.90;;;;;;5032935;28;20481;-59
2022/08/13 03:40:06;;;;;;;5.13;3.45;;;19.40;99.90;;;;;;5032913;28;20112;-59
2022/08/13 03:42:32;;;;;;;7.28;3.30;;;19.30;99.90;;;;;;5019791;28;20085;-59
2022/08/13 03:44:58;;;;;;;5.60;3.20;;;19.30;99.90;;;;;;5033516;28;20034;-60
2022/08/13 03:47:24;;;;;;;6.15;3.20;;;19.30;99.90;;;;;;5028996;28;20380;-59
2022/08/13 03:49:50;;;;;;;7.72;3.80;;;19.30;99.90;;;;;;5030156;28;20116;-59
2022/08/13 03:52:16;;;;;;;5.75;3.25;;;19.30;99.90;;;;;;5025379;28;20164;-58
2022/08/13 03:54:41;;;;;;;5.82;2.97;;;19.30;99.90;;;;;;5036218;28;20104;-59
2022/08/13 03:57:08;;;;;;;6.72;2.70;;;19.30;99.90;;;;;;5042092;28;20522;-58
2022/08/13 03:59:33;;;;;;;5.72;3.53;;;19.30;99.90;;;;;;5036496;28;20037;-59
2022/08/13 04:02:02;;;;;;;5.80;3.33;;;19.30;99.90;;;;;;5022849;28;20039;-59
2022/08/13 04:04:28;;;;;;;5.65;3.42;;;19.30;99.90;;;;;;5046320;28;20163;-60
2022/08/13 04:06:54;;;;;;;6.85;3.40;;;19.30;99.90;;;;;;5033183;28;20116;-59
2022/08/13 04:09:20;;;;;;;5.13;3.38;;;19.30;99.90;;;;;;5044037;28;20056;-59
2022/08/13 04:11:49;;;;;;;4.38;3.33;;;19.30;99.90;;;;;;5043086;28;20030;-59
2022/08/13 04:14:14;;;;;;;5.80;3.67;;;19.20;99.90;;;;;;5032771;28;20394;-59
2022/08/13 04:16:40;;;;;;;5.85;3.38;;;19.20;99.90;;;;;;5032365;28;20140;-60
2022/08/13 04:19:07;;;;;;;4.28;3.08;;;19.20;99.90;;;;;;5040304;28;20072;-58
2022/08/13 04:21:34;;;;;;;5.15;3.42;;;19.30;99.90;;;;;;5032486;28;20093;-59
2022/08/13 04:24:04;;;;;;;5.32;3.10;;;19.20;99.90;;;;;;5003686;28;20093;-58
2022/08/13 04:26:31;;;;;;;5.53;3.17;;;19.30;99.80;;;;;;5034803;28;20040;-60
2022/08/13 04:28:57;;;;;;;8.25;3.70;;;19.40;99.80;;;;;;5036910;28;20144;-59
2022/08/13 04:31:23;;;;;;;4.78;3.38;;;19.30;99.70;;;;;;5031676;28;20073;-59
2022/08/13 04:33:50;;;;;;;4.75;3.38;;;19.30;99.60;;;;;;5045638;28;20051;-60
2022/08/13 04:36:16;;;;;;;6.30;3.60;;;19.30;99.80;;;;;;5032914;28;20048;-59
2022/08/13 04:38:42;;;;;;;7.47;3.70;;;19.20;99.90;;;;;;5032119;28;20041;-59
2022/08/13 04:41:08;;;;;;;5.55;3.42;;;19.20;99.90;;;;;;5044967;28;20128;-59
2022/08/13 04:43:33;;;;;;;6.82;3.78;;;19.20;99.80;;;;;;5032141;28;20071;-59
2022/08/13 04:46:00;;;;;;;6.38;3.47;;;19.30;99.70;;;;;;5033357;28;20037;-59
2022/08/13 04:48:33;;;;;;;6.82;3.55;;;19.30;99.60;;;;;;5044704;28;20366;-59
2022/08/13 04:51:00;;;;;;;5.45;3.38;;;19.30;99.60;;;;;;5042572;28;20041;-60
2022/08/13 04:53:28;;;;;;;5.40;3.50;;;19.30;99.60;;;;;;5038602;28;20051;-59
2022/08/13 04:55:55;;;;;;;4.53;3.28;;;19.40;99.70;;;;;;5039146;28;20033;-59
2022/08/13 04:58:22;;;;;;;6.97;3.70;;;19.70;99.50;;;;;;5033460;28;20045;-59
2022/08/13 05:00:50;;;;;;;4.53;3.50;;;20.30;98.80;;;;;;5040089;28;20044;-59
2022/08/13 05:03:22;;;;;;;7.32;3.42;;;21.00;98.00;;;;;;5031951;28;20067;-61
2022/08/13 05:05:49;;;;;;;6.93;3.42;;;21.50;97.30;;;;;;5031714;28;20080;-58
2022/08/13 05:08:16;;;;;;;11.27;3.35;;;21.80;97.00;;;;;;5031540;28;20481;-58
2022/08/13 05:10:43;;;;;;;7.40;3.60;;;22.30;96.50;;;;;;5031292;28;20494;-59
2022/08/13 05:13:30;;;;;;;5.18;3.55;;;22.60;96.20;;;;;;5010166;28;20454;-59
2022/08/13 05:16:01;;;;;;;6.03;3.30;;;22.70;95.60;;;;;;5031850;28;20041;-59
2022/08/13 05:18:31;;;;;;;4.95;3.22;;;22.70;95.80;;;;;;5031203;28;20065;-60
2022/08/13 05:20:59;;;;;;;4.68;3.33;;;22.20;96.10;;;;;;5030105;28;20379;-59
2022/08/13 05:23:27;;;;;;;7.25;3.38;;;21.80;96.60;;;;;;5031566;28;20411;-59
2022/08/13 05:25:53;;;;;;;6.55;3.85;;;21.60;96.90;;;;;;5045550;28;20041;-59
2022/08/13 05:28:20;;;;;;;5.82;3.53;;;21.60;96.90;;;;;;5041353;28;20033;-59
2022/08/13 05:30:47;;;;;;;4.65;3.20;;;21.90;96.60;;;;;;5048836;28;20041;-60
2022/08/13 05:33:17;;;;;;;5.63;3.20;;;21.90;96.50;;;;;;5030931;28;20038;-59
2022/08/13 05:35:48;;;;;;;4.50;3.33;;;21.90;96.60;;;;;;5031818;28;20462;-58
2022/08/13 05:38:15;;;;;;;7.75;3.28;;;22.20;96.20;;;;;;5026371;28;20091;-60
2022/08/13 05:40:42;;;;;;;7.97;3.15;;;22.70;95.50;;;;;;5031069;28;20045;-59
2022/08/13 05:43:13;;;;;;;5.43;2.92;;;23.40;94.80;;;;;;5030195;28;20366;-59
2022/08/13 05:45:41;;;;;;;4.05;2.67;;;24.00;93.70;;;;;;5013916;28;20486;-59
2022/08/13 05:48:08;;;;;;;5.88;3.00;;;24.50;93.70;;;;;;5045482;28;20360;-60
2022/08/13 05:50:34;;;;;;;4.55;2.97;;;25.10;93.10;;;;;;5031134;28;20072;-61
2022/08/13 05:53:10;;;;;;;3.67;2.80;;;25.50;92.70;;;;;;5033265;28;20025;-59
2022/08/13 05:55:38;;;;;;;3.75;2.95;;;25.80;91.60;;;;;;5041143;28;20144;-59
2022/08/13 05:58:05;;;;;;;4.70;2.70;;;26.10;91.80;;;;;;5016332;28;20060;-59
2022/08/13 06:03:25;;;;;;;6.03;2.97;;;26.60;91.10;;;;;;5031757;28;20481;-60
2022/08/13 06:05:54;;;;;;;4.28;2.83;;;26.80;90.70;;;;;;5035067;28;20383;-59
2022/08/13 06:08:29;;;;;;;7.78;3.13;;;26.90;90.10;;;;;;5035100;28;20057;-60
2022/08/13 06:11:00;;;;;;;6.68;2.70;;;27.10;90.20;;;;;;5034334;28;20030;-60
2022/08/13 06:13:28;;;;;;;4.70;2.72;;;27.30;89.70;;;;;;5032610;28;20045;-60
2022/08/13 06:15:58;;;;;;;5.50;2.60;;;27.30;89.70;;;;;;5034808;28;20521;-59
2022/08/13 06:18:35;;;;;;;5.15;2.50;;;27.70;89.30;;;;;;5034693;28;20061;-60
2022/08/13 06:21:05;;;;;;;4.70;2.63;;;28.00;87.30;;;;;;5016372;28;20350;-60
2022/08/13 06:23:32;;;;;;;5.22;2.60;;;28.10;87.90;;;;;;5034495;28;20377;-60
2022/08/13 06:25:59;;;;;;;12.02;2.72;;;28.40;87.50;;;;;;5048994;28;20037;-60
2022/08/13 06:28:29;;;;;;;3.40;2.40;;;28.40;87.60;;;;;;5036480;28;20081;-59
2022/08/13 06:30:58;;;;;;;4.03;2.45;;;28.50;87.00;;;;;;5016879;28;20065;-61
2022/08/13 06:33:25;;;;;;;5.78;2.60;;;28.80;86.90;;;;;;5034793;28;20373;-59
2022/08/13 06:35:57;;;;;;;4.43;2.28;;;28.70;86.50;;;;;;5034955;28;20138;-59
2022/08/13 06:38:49;;;;;;;2.70;2.20;;;28.40;86.40;;;;;;5034746;28;20041;-60
2022/08/13 06:41:17;;;;;;;3.40;2.40;;;28.70;86.60;;;;;;5038875;28;20046;-59
2022/08/13 06:43:47;;;;;;;5.72;2.40;;;28.70;86.20;;;;;;5035497;28;20377;-60
2022/08/13 06:46:15;;;;;;;3.95;2.20;;;28.90;86.10;;;;;;5036753;28;20032;-59
2022/08/13 06:48:41;;;;;;;4.22;2.40;;;29.10;86.10;;;;;;5036599;28;20106;-60
2022/08/13 06:51:09;;;;;;;5.05;2.15;;;29.40;85.60;;;;;;5037881;28;20120;-59
2022/08/13 06:53:36;;;;;;;5.22;2.50;;;29.30;85.90;;;;;;5016596;28;20041;-59
2022/08/13 06:56:08;;;;;;;6.15;2.00;;;29.40;85.80;;;;;;5034470;28;20041;-59
2022/08/13 06:58:35;;;;;;;4.22;2.08;;;29.40;85.10;;;;;;5041079;28;20361;-59
2022/08/13 07:01:01;;;;;;;3.10;1.90;;;29.50;85.40;;;;;;5052043;28;20044;-59
2022/08/13 07:03:34;;;;;;;5.90;2.00;;;29.70;85.60;;;;;;5033697;28;20056;-59
2022/08/13 07:06:00;;;;;;;4.18;2.10;;;29.60;85.00;;;;;;5046318;28;20044;-59
2022/08/13 07:08:29;;;;;;;5.43;2.05;;;29.70;85.10;;;;;;5039838;28;20473;-59
2022/08/13 07:13:43;;;;;;;3.58;1.75;;;29.80;84.50;;;;;;5046647;28;20052;-60
2022/08/13 07:16:11;;;;;;;6.50;1.90;;;29.60;83.80;;;;;;5033792;28;20371;-59
2022/08/13 07:18:37;;;;;;;4.00;1.77;;;29.50;84.00;;;;;;5033851;28;20034;-60
2022/08/13 07:21:09;;;;;;;5.65;1.65;;;29.50;84.40;;;;;;5032926;28;20049;-59
2022/08/13 07:23:36;;;;;;;3.50;1.80;;;29.40;84.10;;;;;;5033657;28;20038;-60
2022/08/13 07:26:03;;;;;;;4.40;1.55;;;29.50;84.00;;;;;;5052331;28;20490;-59
2022/08/13 07:28:30;;;;;;;4.28;1.90;;;29.50;83.80;;;;;;5053614;28;20037;-60
2022/08/13 07:30:57;;;;;;;4.40;2.08;;;29.60;83.90;;;;;;5052892;28;20041;-59
2022/08/13 07:33:24;;;;;;;5.28;1.80;;;29.60;83.60;;;;;;5023602;28;20041;-59
2022/08/13 07:35:50;;;;;;;3.05;1.90;;;29.50;83.80;;;;;;5048721;28;20052;-59
2022/08/13 07:38:16;;;;;;;6.05;1.83;;;29.20;84.00;;;;;;5045521;28;20355;-59
2022/08/13 07:40:45;;;;;;;4.20;1.92;;;28.90;84.60;;;;;;5032984;28;20115;-59
2022/08/13 07:43:16;;;;;;;2.60;1.70;;;28.70;85.00;;;;;;5021541;28;20056;-59
2022/08/13 07:45:42;;;;;;;3.97;1.70;;;28.40;85.60;;;;;;5046104;28;20103;-59
2022/08/13 07:48:09;;;;;;;4.95;1.98;;;28.30;85.80;;;;;;5048080;28;20455;-60
2022/08/13 07:50:35;;;;;;;3.42;1.70;;;28.20;85.80;;;;;;5015168;28;20045;-61
2022/08/13 07:53:02;;;;;;;2.92;1.60;;;28.20;85.80;;;;;;5019492;28;20846;-60
2022/08/13 07:55:28;;;;;;;5.32;1.98;;;28.20;86.20;;;;;;5032852;28;20049;-61
2022/08/13 07:57:54;;;;;;;3.58;1.63;;;28.30;86.40;;;;;;5046990;28;20358;-60
2022/08/13 08:00:28;;;;;;;3.53;2.88;;;28.30;86.60;;;;;;5039840;28;20072;-61
2022/08/13 08:03:02;;;;;;;5.68;2.92;;;28.40;86.80;;;;;;5050382;28;20045;-60
2022/08/13 08:05:34;;;;;;;4.60;2.10;;;28.30;86.30;;;;;;5045175;28;20099;-60
2022/08/13 08:08:00;;;;;;;6.05;1.70;;;28.40;86.40;;;;;;5032352;28;20375;-60
2022/08/13 08:10:26;;;;;;;4.20;1.80;;;28.20;85.80;;;;;;5032516;28;20153;-59
2022/08/13 08:12:56;;;;;;;5.38;2.38;;;28.20;85.70;;;;;;5014539;28;20041;-59
2022/08/13 08:15:23;;;;;;;4.50;4.10;;;28.20;85.90;;;;;;5037634;28;20041;-60
2022/08/13 08:17:49;;;;;;;15.23;12.88;;;28.40;86.10;;;;;;5023367;28;20148;-60
2022/08/13 08:20:21;;;;;;;13.18;5.93;;;28.60;86.40;;;;;;5046172;28;20117;-60
2022/08/13 08:22:49;;;;;;;27.23;20.13;;;28.70;86.20;;;;;;5031502;28;20041;-60
2022/08/13 08:25:19;;;;;;;14.00;11.25;;;28.80;85.90;;;;;;5048715;28;20072;-59
2022/08/13 08:27:45;;;;;;;11.50;10.13;;;28.80;85.40;;;;;;5046936;28;20699;-59
2022/08/13 08:30:18;;;;;;;4.72;3.67;;;28.80;85.10;;;;;;5003724;28;20121;-60
2022/08/13 08:32:53;;;;;;;5.20;2.42;;;28.90;84.70;;;;;;5037303;28;20094;-59
2022/08/13 08:35:20;;;;;;;5.03;3.00;;;28.90;85.10;;;;;;5052172;28;20378;-60
2022/08/13 08:43:35;;;;;;;5.55;2.47;;;29.10;85.00;;;;;;5021666;28;20060;-59
2022/08/13 08:46:03;;;;;;;8.82;6.97;;;29.10;85.10;;;;;;5029706;28;20041;-60
2022/08/13 08:48:30;;;;;;;3.30;1.90;;;29.10;83.90;;;;;;5036568;28;20038;-60
2022/08/13 08:50:57;;;;;;;2.10;1.80;;;29.10;84.00;;;;;;5026244;28;20038;-60
2022/08/13 08:53:25;;;;;;;5.38;2.00;;;29.10;83.90;;;;;;5030940;28;20034;-59
2022/08/13 08:55:52;;;;;;;4.40;1.75;;;29.20;84.30;;;;;;5044327;28;20045;-60
2022/08/13 08:58:19;;;;;;;2.58;2.15;;;29.40;84.60;;;;;;5020123;28;20075;-61
2022/08/13 09:00:47;;;;;;;3.97;1.77;;;29.50;83.90;;;;;;5040813;28;20050;-60
2022/08/13 09:03:18;;;;;;;2.35;1.70;;;29.50;83.90;;;;;;5044784;28;20033;-61
2022/08/13 09:05:48;;;;;;;4.63;1.92;;;29.60;84.30;;;;;;5041506;28;20075;-60
2022/08/13 09:08:18;;;;;;;3.28;1.80;;;29.60;83.50;;;;;;5049008;28;20044;-59
2022/08/13 09:10:48;;;;;;;3.03;1.70;;;29.60;83.10;;;;;;5022423;28;20359;-60
2022/08/13 09:13:19;;;;;;;4.15;2.17;;;29.60;83.20;;;;;;5032354;28;20123;-60
2022/08/13 09:15:47;;;;;;;3.25;1.80;;;29.70;83.30;;;;;;5040107;28;20045;-59
2022/08/13 09:18:17;;;;;;;4.82;1.80;;;29.70;82.80;;;;;;5050438;28;20138;-60
2022/08/13 09:20:43;;;;;;;3.30;1.90;;;29.90;82.80;;;;;;5037971;28;20063;-60
2022/08/13 09:23:14;;;;;;;5.82;1.75;;;29.90;82.90;;;;;;5032872;28;20451;-60
2022/08/13 09:25:48;;;;;;;3.20;1.70;;;29.90;82.30;;;;;;5050818;28;20522;-60
2022/08/13 09:28:22;;;;;;;2.70;2.15;;;29.90;82.20;;;;;;5051284;28;20482;-59
2022/08/13 09:30:48;;;;;;;2.72;1.90;;;30.00;82.20;;;;;;5019085;28;20075;-60
2022/08/13 09:33:14;;;;;;;2.45;1.80;;;30.00;82.80;;;;;;5040468;28;20127;-60
2022/08/13 09:35:42;;;;;;;3.05;1.88;;;30.10;81.70;;;;;;5017043;28;20132;-60
2022/08/13 09:38:08;;;;;;;4.07;2.13;;;30.10;81.50;;;;;;5036931;28;20344;-60
2022/08/13 09:40:44;;;;;;;4.50;2.72;;;30.00;81.90;;;;;;5050828;28;20478;-60
2022/08/13 09:43:18;;;;;;;4.00;1.80;;;30.10;81.30;;;;;;5021207;28;20044;-60
2022/08/13 09:45:53;;;;;;;9.68;7.97;;;30.20;82.00;;;;;;5039952;28;20052;-61
2022/08/13 09:48:20;;;;;;;2.78;1.95;;;30.20;82.00;;;;;;5037608;28;20056;-60
2022/08/13 09:50:46;;;;;;;3.83;2.42;;;30.20;81.40;;;;;;5000878;28;20042;-60
2022/08/13 09:53:12;;;;;;;2.85;1.70;;;30.30;81.20;;;;;;5005097;28;20355;-60
2022/08/13 09:55:38;;;;;;;7.53;2.00;;;30.30;81.30;;;;;;5040199;28;20060;-59
2022/08/13 09:58:04;;;;;;;3.90;1.77;;;30.40;81.40;;;;;;5047572;28;20037;-60
2022/08/13 10:00:33;;;;;;;4.40;1.90;;;30.40;80.90;;;;;;5049986;28;20525;-60
2022/08/13 10:03:05;;;;;;;5.57;1.80;;;30.40;80.20;;;;;;5034761;28;20153;-60
2022/08/13 10:05:34;;;;;;;4.60;2.08;;;30.40;80.70;;;;;;5038766;28;20045;-59
2022/08/13 10:08:05;;;;;;;4.38;1.75;;;30.40;79.80;;;;;;5036586;28;20131;-60
2022/08/13 10:10:32;;;;;;;4.47;1.85;;;30.50;80.10;;;;;;5043575;28;20117;-60
2022/08/13 10:13:01;;;;;;;5.78;2.75;;;30.50;80.00;;;;;;5042963;28;20068;-60
2022/08/13 10:15:27;;;;;;;2.15;1.80;;;30.60;80.10;;;;;;5027296;28;20053;-61
2022/08/13 10:17:56;;;;;;;5.20;1.77;;;30.70;80.10;;;;;;5042293;28;20060;-60
2022/08/13 10:20:45;;;;;;;4.95;3.05;;;30.80;78.90;;;;;;5036442;28;20037;-59
2022/08/13 10:23:13;;;;;;;2.15;1.80;;;30.70;78.90;;;;;;5046022;28;20106;-60
2022/08/13 10:25:40;;;;;;;3.55;1.88;;;30.80;79.00;;;;;;5031180;28;20053;-60
2022/08/13 10:28:24;;;;;;;2.92;1.60;;;30.80;78.60;;;;;;5021049;28;20077;-59
2022/08/13 10:30:50;;;;;;;6.45;2.10;;;30.90;78.50;;;;;;5034344;28;20038;-60
2022/08/13 10:33:17;;;;;;;2.58;1.70;;;31.00;78.10;;;;;;5029363;28;20049;-60
2022/08/13 10:35:45;;;;;;;3.85;2.13;;;30.90;77.60;;;;;;5027448;28;20048;-61
2022/08/13 10:38:16;;;;;;;2.20;1.75;;;30.90;77.70;;;;;;5050413;28;20076;-60
2022/08/13 10:40:43;;;;;;;5.78;2.90;;;30.90;77.90;;;;;;5049990;28;20469;-60
2022/08/13 10:43:10;;;;;;;4.00;1.80;;;31.10;78.10;;;;;;5012370;28;20133;-61
2022/08/13 10:45:36;;;;;;;2.53;1.48;;;31.10;77.40;;;;;;5025211;28;20041;-60
2022/08/13 10:48:11;;;;;;;1.58;1.48;;;31.10;75.90;;;;;;5050495;28;20472;-60
2022/08/13 10:50:37;;;;;;;4.88;1.88;;;31.10;75.40;;;;;;5035245;28;20036;-60
2022/08/13 10:53:04;;;;;;;2.00;1.73;;;31.00;75.10;;;;;;5033845;28;20048;-60
2022/08/13 10:55:30;;;;;;;2.90;1.77;;;31.00;75.30;;;;;;5033147;28;20128;-60
2022/08/13 10:57:56;;;;;;;2.20;2.00;;;31.10;75.20;;;;;;5053907;28;20466;-61
2022/08/13 11:00:22;;;;;;;3.95;1.77;;;31.20;75.00;;;;;;5036195;28;20457;-61
2022/08/13 11:02:50;;;;;;;4.25;2.22;;;31.30;74.50;;;;;;5027041;28;20038;-60
2022/08/13 11:05:25;;;;;;;5.70;5.13;;;31.40;73.60;;;;;;5035768;28;20049;-60
2022/08/13 11:07:53;;;;;;;4.75;3.10;;;31.40;73.30;;;;;;5040524;28;20055;-61
2022/08/13 11:10:21;;;;;;;5.90;3.50;;;31.50;72.70;;;;;;5035123;28;20035;-60
2022/08/13 11:12:51;;;;;;;5.35;4.07;;;31.60;72.10;;;;;;5033085;28;20398;-60
2022/08/13 11:15:20;;;;;;;4.32;2.00;;;31.70;72.30;;;;;;5049280;28;20103;-60
2022/08/13 11:17:48;;;;;;;5.53;3.38;;;31.80;70.80;;;;;;5026071;28;20052;-60
2022/08/13 11:20:17;;;;;;;4.65;1.80;;;31.80;70.10;;;;;;5046789;28;20478;-60
2022/08/13 11:22:43;;;;;;;1.45;1.25;;;31.80;70.20;;;;;;5025623;28;20129;-60
2022/08/13 11:25:09;;;;;;;5.20;1.40;;;31.90;70.80;;;;;;5048862;28;20116;-60
2022/08/13 11:27:35;;;;;;;3.72;1.92;;;32.00;71.30;;;;;;5053672;28;20064;-60
2022/08/13 11:30:02;;;;;;;3.30;1.83;;;32.00;71.30;;;;;;5053390;28;20063;-60
2022/08/13 11:32:27;;;;;;;2.63;1.65;;;32.00;71.00;;;;;;5043650;28;20037;-60
2022/08/13 11:34:53;;;;;;;1.95;1.73;;;32.00;71.10;;;;;;5035674;28;20051;-60
2022/08/13 11:37:19;;;;;;;4.20;2.45;;;32.00;70.70;;;;;;5005758;28;20467;-60
2022/08/13 11:39:45;;;;;;;3.30;1.58;;;32.00;70.40;;;;;;5052665;28;20048;-60
2022/08/13 11:42:10;;;;;;;4.90;2.30;;;32.00;69.70;;;;;;5026460;28;20037;-60
2022/08/13 11:44:36;;;;;;;2.00;1.80;;;31.90;70.00;;;;;;5050999;28;20043;-60
2022/08/13 11:47:01;;;;;;;2.65;2.45;;;32.00;70.00;;;;;;5053382;28;20075;-60
2022/08/13 11:49:27;;;;;;;4.13;2.38;;;31.90;69.70;;;;;;5035031;28;20188;-61
2022/08/13 11:51:53;;;;;;;4.55;3.25;;;32.00;69.90;;;;;;5039961;28;20040;-62
2022/08/13 11:54:20;;;;;;;4.45;2.53;;;32.00;69.90;;;;;;5040757;28;20114;-59
2022/08/13 11:56:45;;;;;;;3.90;2.85;;;32.10;70.00;;;;;;5046888;28;20494;-60
2022/08/13 11:59:11;;;;;;;1.75;1.63;;;32.20;70.10;;;;;;5044259;28;20072;-60
2022/08/13 12:01:36;;;;;;;8.10;5.97;;;32.10;69.20;;;;;;5047927;28;20038;-61
2022/08/13 12:04:02;;;;;;;2.15;1.70;;;32.20;70.00;;;;;;5015472;28;20124;-60
2022/08/13 12:06:28;;;;;;;5.93;2.83;;;32.20;69.30;;;;;;5048684;28;20071;-60
2022/08/13 12:08:54;;;;;;;3.53;1.85;;;32.20;69.40;;;;;;5034650;28;20079;-60
2022/08/13 12:11:20;;;;;;;1.98;1.60;;;32.20;69.40;;;;;;5050678;28;20032;-60
2022/08/13 12:13:45;;;;;;;2.38;1.90;;;32.10;68.70;;;;;;5052574;28;20043;-60
2022/08/13 12:16:11;;;;;;;5.32;2.67;;;32.10;67.80;;;;;;5052507;28;20373;-60
2022/08/13 12:18:37;;;;;;;3.97;3.25;;;32.10;67.30;;;;;;5048378;28;20366;-60
2022/08/13 12:21:02;;;;;;;4.03;2.28;;;32.20;67.70;;;;;;5032898;28;20041;-58
2022/08/13 12:23:28;;;;;;;5.13;2.65;;;32.20;67.70;;;;;;5015602;28;20458;-58
2022/08/13 12:25:54;;;;;;;1.52;1.42;;;32.20;67.70;;;;;;5052491;28;20415;-59
2022/08/13 12:28:19;;;;;;;2.92;2.17;;;32.20;67.20;;;;;;5052205;28;20406;-58
2022/08/13 12:30:56;;;;;;;2.72;1.50;;;32.30;66.80;;;;;;5034740;28;20331;-59
2022/08/13 12:33:22;;;;;;;1.50;1.35;;;32.30;66.30;;;;;;5042663;28;20477;-58
2022/08/13 12:35:48;;;;;;;2.30;1.83;;;32.20;66.80;;;;;;5049681;28;20049;-59
2022/08/13 12:38:15;;;;;;;3.35;2.30;;;32.10;67.50;;;;;;5019295;28;20132;-58
2022/08/13 12:40:43;;;;;;;3.08;2.00;;;32.20;68.60;;;;;;5032069;28;20052;-59
2022/08/13 12:43:10;;;;;;;3.00;2.10;;;32.20;68.10;;;;;;5040887;28;20044;-58
2022/08/13 12:45:37;;;;;;;3.58;2.35;;;32.30;68.60;;;;;;5052099;28;20403;-58
2022/08/13 12:48:05;;;;;;;5.68;3.17;;;32.20;67.20;;;;;;5034314;28;20069;-59
2022/08/13 12:50:31;;;;;;;4.55;1.95;;;32.20;67.10;;;;;;5024827;28;20432;-58
2022/08/13 12:52:57;;;;;;;1.80;1.63;;;32.20;66.30;;;;;;5039119;28;20120;-59
2022/08/13 12:55:22;;;;;;;3.00;2.13;;;32.20;67.10;;;;;;5052186;28;20028;-58
2022/08/13 12:57:48;;;;;;;4.40;2.08;;;32.20;67.50;;;;;;5051419;28;20041;-58
2022/08/13 13:00:14;;;;;;;3.60;2.25;;;32.10;67.60;;;;;;5051529;28;20118;-58
2022/08/13 13:02:40;;;;;;;2.47;1.75;;;32.20;67.70;;;;;;5038860;28;20451;-61
2022/08/13 13:05:06;;;;;;;13.93;10.90;;;32.20;67.50;;;;;;5013932;28;20042;-59
2022/08/13 13:07:32;;;;;;;11.27;9.32;;;32.20;68.20;;;;;;5008095;28;20037;-59
2022/08/13 13:09:59;;;;;;;2.90;1.80;;;32.20;67.80;;;;;;5016839;28;20047;-59
2022/08/13 13:12:26;;;;;;;2.08;1.65;;;32.30;66.70;;;;;;5012576;28;20034;-59